Time;durP1;ratioP1;P1;durP2;ratioP2;P2;SDS_P1;SDS_P2;PMS_P1;PMS_P2;Temp;Humidity;BMP_temperature;BMP_pressure;BME280_temperature;BME280_humidity;BME280_pressure;Samples;Min_cycle;Max_cycle;Signal;HPM_P1;HPM_P2
2023/06/17 00:00:41;;;;;;;4.38;3.10;;;20.70;95.50;;;;;;5031432;28;20022;-34
2023/06/17 00:03:07;;;;;;;4.95;3.17;;;20.70;95.50;;;;;;5031938;28;20080;-34
2023/06/17 00:05:32;;;;;;;5.45;2.83;;;20.70;95.60;;;;;;5031551;28;20036;-37
2023/06/17 00:07:58;;;;;;;3.28;2.97;;;20.80;95.60;;;;;;5032843;28;20030;-35
2023/06/17 00:10:23;;;;;;;3.08;2.70;;;20.80;95.60;;;;;;5031954;28;20499;-36
2023/06/17 00:12:49;;;;;;;3.85;2.88;;;20.70;95.60;;;;;;5031230;28;20041;-34
2023/06/17 00:15:16;;;;;;;3.75;2.80;;;20.70;95.60;;;;;;5031029;28;20032;-37
2023/06/17 00:17:46;;;;;;;3.05;2.75;;;20.70;95.60;;;;;;5031064;28;20087;-35
2023/06/17 00:20:12;;;;;;;4.03;3.30;;;20.70;95.60;;;;;;5031773;28;20075;-41
2023/06/17 00:22:39;;;;;;;3.22;2.75;;;20.70;95.60;;;;;;5032219;28;20070;-38
2023/06/17 00:25:06;;;;;;;3.15;2.70;;;20.70;95.60;;;;;;5031027;28;20051;-37
2023/06/17 00:27:32;;;;;;;4.47;3.03;;;20.70;95.60;;;;;;5030807;28;20040;-35
2023/06/17 00:30:00;;;;;;;2.70;2.50;;;20.70;95.60;;;;;;5030845;28;20025;-36
2023/06/17 00:32:27;;;;;;;3.97;3.00;;;20.70;95.60;;;;;;5031033;28;20103;-37
2023/06/17 00:34:53;;;;;;;4.22;3.22;;;20.70;95.60;;;;;;5031128;28;20022;-36
2023/06/17 00:37:19;;;;;;;4.75;2.90;;;20.70;95.60;;;;;;5032168;28;20063;-36
2023/06/17 00:39:45;;;;;;;3.28;2.88;;;20.70;95.60;;;;;;5031043;28;20061;-38
2023/06/17 00:42:11;;;;;;;3.70;2.88;;;20.70;95.60;;;;;;5030983;28;20033;-33
2023/06/17 00:44:39;;;;;;;4.28;3.08;;;20.70;95.60;;;;;;5034609;28;20025;-39
2023/06/17 00:47:06;;;;;;;3.15;2.85;;;20.70;95.60;;;;;;5034573;28;20076;-36
2023/06/17 00:49:36;;;;;;;3.35;3.05;;;20.70;95.70;;;;;;5035045;28;20036;-37
2023/06/17 00:52:07;;;;;;;3.28;2.88;;;20.70;95.70;;;;;;5034467;28;20104;-35
2023/06/17 00:54:40;;;;;;;3.25;2.60;;;20.60;95.70;;;;;;5016819;28;20026;-36
2023/06/17 00:57:09;;;;;;;3.03;2.72;;;20.70;95.70;;;;;;5034935;28;20034;-38
2023/06/17 00:59:37;;;;;;;4.20;3.38;;;20.70;95.70;;;;;;5034487;28;20030;-37
2023/06/17 01:02:04;;;;;;;3.55;2.88;;;20.60;95.60;;;;;;5034218;28;20515;-39
2023/06/17 01:04:31;;;;;;;4.05;2.83;;;20.70;95.70;;;;;;5034481;28;20033;-39
2023/06/17 01:07:16;;;;;;;3.28;2.63;;;20.70;95.70;;;;;;5035356;28;20052;-39
2023/06/17 01:09:47;;;;;;;3.78;2.70;;;20.60;95.60;;;;;;5034391;28;20033;-38
2023/06/17 01:12:15;;;;;;;4.07;2.80;;;20.60;95.60;;;;;;5034310;28;20025;-34
2023/06/17 01:14:43;;;;;;;3.95;2.70;;;20.70;95.70;;;;;;5035376;28;20021;-34
2023/06/17 01:17:12;;;;;;;4.13;2.63;;;20.60;95.70;;;;;;5034520;28;20473;-38
2023/06/17 01:19:39;;;;;;;3.25;2.88;;;20.60;95.70;;;;;;5034223;28;20535;-34
2023/06/17 01:22:08;;;;;;;3.38;3.08;;;20.60;95.70;;;;;;5034201;28;20091;-35
2023/06/17 01:24:35;;;;;;;4.25;3.30;;;20.60;95.70;;;;;;5034160;28;20033;-39
2023/06/17 01:27:02;;;;;;;5.03;3.00;;;20.60;95.70;;;;;;5033968;28;20053;-34
2023/06/17 01:29:37;;;;;;;3.83;3.17;;;20.60;95.70;;;;;;5034047;28;20021;-39
2023/06/17 01:32:05;;;;;;;3.47;2.90;;;20.60;95.70;;;;;;5033727;28;20393;-35
2023/06/17 01:34:40;;;;;;;3.80;2.85;;;20.60;95.70;;;;;;5034247;28;20396;-35
2023/06/17 01:37:14;;;;;;;4.13;3.03;;;20.60;95.70;;;;;;5034163;28;20025;-34
2023/06/17 01:39:42;;;;;;;3.33;3.03;;;20.60;95.70;;;;;;5016855;28;20164;-36
2023/06/17 01:42:14;;;;;;;4.07;3.10;;;20.60;95.70;;;;;;5034289;28;20029;-41
2023/06/17 01:44:41;;;;;;;4.18;3.38;;;20.60;95.70;;;;;;5034134;28;20388;-34
2023/06/17 01:47:09;;;;;;;5.35;3.17;;;20.60;95.70;;;;;;5033868;28;20075;-36
2023/06/17 01:49:36;;;;;;;4.80;3.28;;;20.60;95.70;;;;;;5033752;28;20493;-40
2023/06/17 01:52:02;;;;;;;3.55;3.05;;;20.60;95.70;;;;;;5034348;28;20014;-39
2023/06/17 01:54:28;;;;;;;3.75;3.35;;;20.60;95.70;;;;;;5032235;28;20358;-34
2023/06/17 01:56:54;;;;;;;3.47;2.92;;;20.60;95.70;;;;;;5033360;28;20032;-39
2023/06/17 01:59:19;;;;;;;5.20;3.30;;;20.60;95.70;;;;;;5033614;28;20026;-37
2023/06/17 02:01:45;;;;;;;6.32;3.25;;;20.60;95.70;;;;;;5033156;28;20068;-37
2023/06/17 02:04:11;;;;;;;4.10;3.17;;;20.60;95.70;;;;;;5033547;28;20033;-36
2023/06/17 02:06:37;;;;;;;3.33;2.95;;;20.60;95.70;;;;;;5033193;28;20028;-37
2023/06/17 02:09:03;;;;;;;5.35;3.28;;;20.60;95.70;;;;;;5033129;28;20025;-41
2023/06/17 02:11:29;;;;;;;3.47;3.10;;;20.60;95.70;;;;;;5032993;28;20028;-38
2023/06/17 02:13:54;;;;;;;4.05;2.83;;;20.50;95.70;;;;;;5033070;28;20052;-38
2023/06/17 02:16:22;;;;;;;3.97;3.35;;;20.50;95.70;;;;;;5015258;28;20057;-34
2023/06/17 02:18:48;;;;;;;3.72;3.33;;;20.50;96.00;;;;;;5033815;28;20022;-39
2023/06/17 02:21:14;;;;;;;3.60;3.03;;;20.50;95.70;;;;;;5032824;28;20025;-39
2023/06/17 02:23:40;;;;;;;4.53;3.38;;;20.50;95.70;;;;;;5033287;28;20030;-39
2023/06/17 02:26:05;;;;;;;3.83;3.20;;;20.50;95.70;;;;;;5032902;28;20032;-34
2023/06/17 02:28:31;;;;;;;5.18;3.10;;;20.50;95.70;;;;;;5033158;28;20416;-38
2023/06/17 02:30:56;;;;;;;5.18;3.22;;;20.50;95.70;;;;;;5033586;28;20017;-37
2023/06/17 02:33:22;;;;;;;3.50;3.05;;;20.50;95.70;;;;;;5032824;28;20040;-40
2023/06/17 02:35:48;;;;;;;4.88;3.00;;;20.50;95.70;;;;;;5032731;28;20477;-40
2023/06/17 02:38:15;;;;;;;5.22;3.30;;;20.50;96.00;;;;;;5033700;28;20029;-39
2023/06/17 02:40:40;;;;;;;3.08;2.72;;;20.50;95.70;;;;;;5032436;28;20036;-37
2023/06/17 02:43:07;;;;;;;3.63;3.22;;;20.50;95.70;;;;;;5033249;28;20428;-39
2023/06/17 02:45:32;;;;;;;5.25;3.15;;;20.50;95.70;;;;;;5033016;28;20497;-36
2023/06/17 02:47:58;;;;;;;4.30;3.40;;;20.50;95.70;;;;;;5032407;28;20116;-36
2023/06/17 02:50:25;;;;;;;3.72;3.30;;;20.50;96.00;;;;;;5032231;28;20083;-34
2023/06/17 02:52:55;;;;;;;3.92;3.15;;;20.50;95.70;;;;;;5032302;28;20508;-36
2023/06/17 02:55:22;;;;;;;3.60;2.67;;;20.50;95.70;;;;;;5032348;28;20075;-42
2023/06/17 02:57:48;;;;;;;7.18;3.28;;;20.50;95.70;;;;;;5032174;28;20029;-37
2023/06/17 03:00:14;;;;;;;3.97;3.38;;;20.50;95.70;;;;;;5032485;28;20026;-36
2023/06/17 03:02:39;;;;;;;5.70;3.17;;;20.50;95.70;;;;;;5032463;28;20611;-38
2023/06/17 03:05:06;;;;;;;4.25;2.80;;;20.50;95.70;;;;;;5032470;28;20388;-39
2023/06/17 03:07:35;;;;;;;3.67;3.28;;;20.50;95.70;;;;;;5031879;28;20033;-42
2023/06/17 03:10:02;;;;;;;4.85;3.03;;;20.50;95.70;;;;;;5032295;28;20100;-37
2023/06/17 03:12:28;;;;;;;3.50;2.72;;;20.40;95.70;;;;;;5032254;28;20029;-36
2023/06/17 03:14:54;;;;;;;4.15;3.38;;;20.50;95.70;;;;;;5031969;28;20026;-40
2023/06/17 03:17:21;;;;;;;3.80;3.33;;;20.40;95.70;;;;;;5033060;28;20040;-38
2023/06/17 03:19:47;;;;;;;4.00;3.42;;;20.40;95.70;;;;;;5031987;28;20030;-35
2023/06/17 03:22:12;;;;;;;6.05;3.45;;;20.40;95.70;;;;;;5032687;28;20079;-38
2023/06/17 03:24:38;;;;;;;3.20;2.90;;;20.40;95.70;;;;;;5032090;28;20025;-40
2023/06/17 03:27:04;;;;;;;4.68;3.20;;;20.40;95.70;;;;;;5031523;28;20033;-36
2023/06/17 03:29:30;;;;;;;5.05;2.85;;;20.40;95.60;;;;;;5031745;28;20025;-38
2023/06/17 03:31:57;;;;;;;4.50;3.15;;;20.40;95.60;;;;;;5031792;28;20021;-43
2023/06/17 03:34:24;;;;;;;4.75;3.35;;;20.40;95.70;;;;;;5033095;28;20108;-38
2023/06/17 03:36:50;;;;;;;5.82;3.15;;;20.40;95.60;;;;;;5032289;28;20026;-37
2023/06/17 03:39:15;;;;;;;5.30;3.20;;;20.40;95.70;;;;;;5031631;28;20033;-34
2023/06/17 03:41:41;;;;;;;5.15;3.45;;;20.40;95.70;;;;;;5031317;28;20042;-35
2023/06/17 03:44:07;;;;;;;3.85;3.22;;;20.40;95.60;;;;;;5031512;28;20029;-34
2023/06/17 03:46:32;;;;;;;4.38;3.38;;;20.40;95.60;;;;;;5031391;28;20040;-36
2023/06/17 03:48:58;;;;;;;4.13;3.35;;;20.40;95.70;;;;;;5031954;28;20030;-37
2023/06/17 03:51:24;;;;;;;8.55;4.28;;;20.40;95.60;;;;;;5031139;28;20018;-37
2023/06/17 03:53:50;;;;;;;11.00;4.28;;;20.20;93.60;;;;;;5031353;28;20683;-38
2023/06/17 03:56:15;;;;;;;13.20;3.88;;;19.60;94.00;;;;;;5031296;28;20026;-38
2023/06/17 03:58:41;;;;;;;9.20;4.07;;;19.00;94.80;;;;;;5031349;28;20029;-36
2023/06/17 04:01:07;;;;;;;11.32;4.68;;;18.80;95.30;;;;;;5031094;28;20076;-36
2023/06/17 04:03:34;;;;;;;10.70;4.60;;;18.80;95.40;;;;;;5031264;28;20464;-35
2023/06/17 04:06:00;;;;;;;5.97;4.18;;;18.90;95.50;;;;;;5031281;28;20030;-35
2023/06/17 04:08:27;;;;;;;11.70;4.35;;;19.10;95.60;;;;;;5030963;28;20396;-35
2023/06/17 04:10:53;;;;;;;8.70;4.40;;;19.20;95.50;;;;;;5031827;28;20037;-38
2023/06/17 04:13:18;;;;;;;5.32;4.03;;;19.40;95.60;;;;;;5031130;28;20109;-35
2023/06/17 04:15:47;;;;;;;5.78;3.72;;;19.50;95.50;;;;;;5031286;28;20104;-35
2023/06/17 04:18:12;;;;;;;9.73;4.20;;;19.60;95.30;;;;;;5032603;28;20021;-36
2023/06/17 04:20:39;;;;;;;6.07;4.00;;;19.70;95.30;;;;;;5035192;28;20030;-36
2023/06/17 04:23:04;;;;;;;6.68;3.97;;;19.70;95.40;;;;;;5035097;28;20480;-38
2023/06/17 04:25:32;;;;;;;6.65;4.05;;;19.80;95.40;;;;;;5035214;28;20031;-35
2023/06/17 04:28:01;;;;;;;5.22;3.88;;;19.80;95.40;;;;;;5035202;28;20021;-36
2023/06/17 04:30:26;;;;;;;6.18;4.10;;;19.90;95.30;;;;;;5034982;28;20024;-35
2023/06/17 04:32:55;;;;;;;7.43;4.03;;;19.90;95.20;;;;;;5035090;28;20423;-34
2023/06/17 04:35:21;;;;;;;6.03;4.22;;;20.00;95.20;;;;;;5036304;28;20100;-38
2023/06/17 04:37:53;;;;;;;5.95;3.80;;;20.00;95.20;;;;;;5035964;28;20022;-38
2023/06/17 04:40:20;;;;;;;5.13;4.22;;;20.00;95.30;;;;;;5035475;28;20030;-35
2023/06/17 04:42:47;;;;;;;5.57;3.60;;;20.00;95.20;;;;;;5034813;28;20017;-36
2023/06/17 04:45:13;;;;;;;4.78;3.67;;;20.10;95.30;;;;;;5034791;28;20025;-35
2023/06/17 04:47:40;;;;;;;7.03;4.55;;;20.10;95.20;;;;;;5034675;28;20017;-35
2023/06/17 04:50:05;;;;;;;5.53;3.60;;;20.10;95.30;;;;;;5034495;28;20021;-37
2023/06/17 04:52:31;;;;;;;6.55;3.88;;;20.10;95.30;;;;;;5034654;28;20013;-35
2023/06/17 04:54:57;;;;;;;7.63;3.90;;;20.10;95.40;;;;;;5034676;28;20392;-37
2023/06/17 04:57:22;;;;;;;5.30;4.13;;;20.10;95.40;;;;;;5016621;28;20030;-35
2023/06/17 04:59:48;;;;;;;7.10;4.35;;;20.10;95.30;;;;;;5034615;28;20036;-32
2023/06/17 05:02:14;;;;;;;6.72;3.83;;;20.10;95.20;;;;;;5034489;28;20025;-35
2023/06/17 05:04:40;;;;;;;7.35;3.92;;;20.10;95.30;;;;;;5034453;28;20032;-38
2023/06/17 05:07:05;;;;;;;6.20;3.97;;;20.20;95.40;;;;;;5034718;28;20056;-37
2023/06/17 05:09:31;;;;;;;5.63;4.18;;;20.20;95.30;;;;;;5034530;28;20061;-35
2023/06/17 05:11:57;;;;;;;4.10;3.58;;;20.20;95.40;;;;;;5034163;28;20075;-37
2023/06/17 05:14:22;;;;;;;7.47;3.60;;;20.20;95.40;;;;;;5034386;28;20101;-33
2023/06/17 05:16:48;;;;;;;5.78;3.35;;;20.20;95.30;;;;;;5034509;28;20076;-35
2023/06/17 05:19:13;;;;;;;6.47;3.60;;;20.20;95.40;;;;;;5034235;28;20520;-35
2023/06/17 05:21:39;;;;;;;5.57;3.70;;;20.20;95.40;;;;;;5034570;28;20033;-38
2023/06/17 05:24:05;;;;;;;5.57;3.83;;;20.20;95.40;;;;;;5034337;28;20095;-35
2023/06/17 05:26:31;;;;;;;4.57;3.92;;;20.20;95.30;;;;;;5033982;28;20550;-35
2023/06/17 05:28:57;;;;;;;4.97;3.90;;;20.20;95.40;;;;;;5034131;28;20025;-37
2023/06/17 05:31:22;;;;;;;5.05;3.60;;;20.20;95.40;;;;;;5033800;28;20490;-35
2023/06/17 05:33:48;;;;;;;5.75;3.97;;;20.20;95.40;;;;;;5034018;28;20026;-33
2023/06/17 05:36:14;;;;;;;5.30;3.75;;;20.20;95.40;;;;;;5033981;28;20107;-35
2023/06/17 05:38:39;;;;;;;6.15;3.60;;;20.20;95.40;;;;;;5034032;28;20515;-33
2023/06/17 05:41:05;;;;;;;7.15;3.67;;;20.30;95.40;;;;;;5034671;28;20028;-33
2023/06/17 05:43:31;;;;;;;5.50;4.20;;;20.30;95.40;;;;;;5033821;28;20064;-38
2023/06/17 05:45:57;;;;;;;4.55;3.38;;;20.30;95.40;;;;;;5034728;28;20592;-36
2023/06/17 05:48:23;;;;;;;4.20;3.42;;;20.30;95.40;;;;;;5034364;28;20021;-35
2023/06/17 05:50:48;;;;;;;6.30;3.78;;;20.30;95.50;;;;;;5033371;28;20025;-35
2023/06/17 05:53:15;;;;;;;5.63;3.65;;;20.30;95.50;;;;;;5033580;28;20082;-39
2023/06/17 05:55:40;;;;;;;4.45;3.45;;;20.30;95.50;;;;;;5034050;28;20415;-35
2023/06/17 05:58:06;;;;;;;7.82;4.10;;;20.30;95.60;;;;;;5033431;28;20144;-35
2023/06/17 06:00:32;;;;;;;5.10;4.18;;;20.30;95.60;;;;;;5033273;28;20592;-35
2023/06/17 06:02:58;;;;;;;5.38;3.53;;;20.30;95.60;;;;;;5033695;28;20018;-35
2023/06/17 06:05:24;;;;;;;7.50;3.92;;;20.30;95.60;;;;;;5033961;28;20032;-35
2023/06/17 06:07:50;;;;;;;4.30;3.47;;;20.40;95.60;;;;;;5033131;28;20036;-36
2023/06/17 06:10:16;;;;;;;4.88;3.47;;;20.30;95.60;;;;;;5033378;28;20022;-39
2023/06/17 06:12:41;;;;;;;5.30;3.75;;;20.40;95.70;;;;;;5033186;28;20033;-33
2023/06/17 06:15:07;;;;;;;5.35;3.55;;;20.40;95.70;;;;;;5034882;28;20028;-33
2023/06/17 06:17:33;;;;;;;6.40;3.88;;;20.40;95.70;;;;;;5033086;28;20035;-34
2023/06/17 06:19:59;;;;;;;5.72;3.45;;;20.30;95.70;;;;;;5032937;28;20033;-33
2023/06/17 06:22:25;;;;;;;5.80;3.15;;;20.40;95.70;;;;;;5033386;28;20511;-35
2023/06/17 06:24:50;;;;;;;6.55;3.80;;;20.30;95.60;;;;;;5032932;28;20493;-36
2023/06/17 06:27:16;;;;;;;7.47;4.05;;;20.30;95.60;;;;;;5033111;28;20104;-35
2023/06/17 06:29:42;;;;;;;6.93;3.63;;;20.40;95.70;;;;;;5032857;28;20072;-35
2023/06/17 06:32:08;;;;;;;4.55;3.83;;;20.40;95.70;;;;;;5032626;28;20022;-35
2023/06/17 06:34:33;;;;;;;5.53;3.72;;;20.40;95.70;;;;;;5033012;28;20052;-33
2023/06/17 06:36:59;;;;;;;4.10;3.50;;;20.40;95.70;;;;;;5032807;28;20032;-36
2023/06/17 06:39:26;;;;;;;4.70;3.38;;;20.40;95.60;;;;;;5034727;28;20036;-37
2023/06/17 06:41:52;;;;;;;4.78;3.65;;;20.40;95.50;;;;;;5032882;28;20080;-35
2023/06/17 06:44:18;;;;;;;6.78;3.83;;;20.40;95.50;;;;;;5032695;28;20484;-35
2023/06/17 06:46:44;;;;;;;4.75;3.30;;;20.40;95.50;;;;;;5032634;28;20033;-36
2023/06/17 06:49:11;;;;;;;5.75;3.40;;;20.40;95.50;;;;;;5032455;28;20036;-35
2023/06/17 06:51:37;;;;;;;4.70;3.67;;;20.40;95.50;;;;;;5033060;28;20485;-38
2023/06/17 06:54:03;;;;;;;4.35;3.83;;;20.40;95.40;;;;;;5032630;28;20028;-36
2023/06/17 06:56:29;;;;;;;6.78;3.72;;;20.40;95.40;;;;;;5033051;28;20057;-35
2023/06/17 06:58:57;;;;;;;4.85;3.42;;;20.50;95.50;;;;;;5032249;28;20568;-35
2023/06/17 07:01:24;;;;;;;6.00;3.55;;;20.50;95.40;;;;;;5032073;28;20033;-33
2023/06/17 07:03:50;;;;;;;6.57;3.60;;;20.50;95.40;;;;;;5033236;28;20028;-38
2023/06/17 07:06:16;;;;;;;3.95;3.53;;;20.50;95.40;;;;;;5032051;28;20021;-35
2023/06/17 07:08:41;;;;;;;4.05;3.35;;;20.50;95.40;;;;;;5032234;28;20040;-35
2023/06/17 07:11:07;;;;;;;4.75;3.53;;;20.50;95.40;;;;;;5032462;28;20053;-33
2023/06/17 07:13:33;;;;;;;5.00;3.92;;;20.50;95.40;;;;;;5032501;28;20408;-36
2023/06/17 07:15:59;;;;;;;4.07;3.42;;;20.50;95.40;;;;;;5032151;28;20022;-35
2023/06/17 07:18:25;;;;;;;4.93;3.38;;;20.50;95.30;;;;;;5031820;28;20028;-40
2023/06/17 07:20:51;;;;;;;3.63;3.22;;;20.50;95.30;;;;;;5032174;28;20571;-35
2023/06/17 07:23:16;;;;;;;4.72;3.15;;;20.50;95.30;;;;;;5032905;28;20503;-35
2023/06/17 07:25:42;;;;;;;3.58;3.05;;;20.50;95.30;;;;;;5014634;28;20022;-35
2023/06/17 07:28:08;;;;;;;3.60;3.15;;;20.50;95.30;;;;;;5032855;28;20026;-35
2023/06/17 07:30:33;;;;;;;4.50;3.45;;;20.50;95.30;;;;;;5031888;28;20397;-35
2023/06/17 07:32:59;;;;;;;5.03;2.95;;;20.50;95.30;;;;;;5031695;28;20029;-36
2023/06/17 07:35:25;;;;;;;3.83;3.20;;;20.50;95.30;;;;;;5033062;28;20029;-33
2023/06/17 07:37:54;;;;;;;4.75;3.35;;;20.50;95.30;;;;;;5031748;28;20590;-35
2023/06/17 07:40:19;;;;;;;3.42;2.95;;;20.50;95.30;;;;;;5031333;28;20026;-37
2023/06/17 07:42:47;;;;;;;5.72;3.38;;;20.50;95.30;;;;;;5032825;28;20032;-33
2023/06/17 07:45:12;;;;;;;5.00;3.60;;;20.60;95.30;;;;;;5032867;28;20484;-35
2023/06/17 07:47:38;;;;;;;3.40;3.10;;;20.50;95.30;;;;;;5031761;28;20033;-35
2023/06/17 07:50:04;;;;;;;4.25;3.17;;;20.50;95.30;;;;;;5031496;28;20362;-35
2023/06/17 07:52:31;;;;;;;3.78;3.38;;;20.60;95.30;;;;;;5031477;28;20429;-42
2023/06/17 07:54:57;;;;;;;4.47;3.20;;;20.60;95.30;;;;;;5031396;28;20013;-35
2023/06/17 07:57:23;;;;;;;4.63;3.25;;;20.50;95.30;;;;;;5031562;28;20029;-36
2023/06/17 07:59:49;;;;;;;4.13;3.20;;;20.60;95.30;;;;;;5031266;28;20029;-39
2023/06/17 08:02:15;;;;;;;6.05;3.20;;;20.60;95.20;;;;;;5013440;28;20025;-35
2023/06/17 08:04:41;;;;;;;5.00;2.78;;;20.60;95.20;;;;;;5031411;28;20266;-41
2023/06/17 08:07:07;;;;;;;3.28;2.97;;;20.60;95.20;;;;;;5030957;28;20167;-37
2023/06/17 08:09:32;;;;;;;3.67;3.00;;;20.60;95.20;;;;;;5031662;28;20384;-33
2023/06/17 08:11:58;;;;;;;3.83;3.03;;;20.60;95.20;;;;;;5031142;28;20217;-39
2023/06/17 08:14:24;;;;;;;4.00;3.00;;;20.60;95.20;;;;;;5031113;28;20096;-35
2023/06/17 08:16:49;;;;;;;4.10;3.13;;;20.60;95.20;;;;;;5031274;28;20547;-38
2023/06/17 08:19:15;;;;;;;5.07;3.00;;;20.60;95.20;;;;;;5031171;28;20013;-35
2023/06/17 08:21:45;;;;;;;4.53;2.80;;;20.60;95.20;;;;;;5031190;28;20407;-37
2023/06/17 08:24:21;;;;;;;4.05;3.25;;;20.60;95.10;;;;;;5031259;28;20025;-33
2023/06/17 08:26:48;;;;;;;3.33;3.00;;;20.60;95.10;;;;;;5031029;28;20049;-37
2023/06/17 08:29:15;;;;;;;5.00;3.35;;;20.60;95.10;;;;;;5032265;28;20098;-36
2023/06/17 08:31:45;;;;;;;3.45;3.15;;;20.70;95.20;;;;;;5030884;28;20026;-35
2023/06/17 08:34:13;;;;;;;7.07;3.40;;;20.60;95.10;;;;;;5031486;28;20061;-35
2023/06/17 08:36:41;;;;;;;4.03;3.22;;;20.70;95.20;;;;;;5030986;28;20036;-35
2023/06/17 08:39:08;;;;;;;4.95;3.00;;;20.70;95.10;;;;;;5013961;28;20462;-38
2023/06/17 08:41:42;;;;;;;4.00;3.10;;;20.70;95.10;;;;;;5030854;28;20507;-35
2023/06/17 08:44:11;;;;;;;3.80;3.13;;;20.70;95.10;;;;;;5031183;28;20045;-35
2023/06/17 08:46:38;;;;;;;3.45;2.65;;;20.70;95.10;;;;;;5030913;28;20029;-35
2023/06/17 08:49:03;;;;;;;4.30;3.15;;;20.70;95.10;;;;;;5030922;28;20033;-35
2023/06/17 08:51:30;;;;;;;4.22;3.10;;;20.70;95.10;;;;;;5031514;28;20050;-38
2023/06/17 08:53:56;;;;;;;3.95;3.10;;;20.70;95.10;;;;;;5030681;28;20021;-35
2023/06/17 08:56:23;;;;;;;4.97;3.05;;;20.70;95.10;;;;;;5031573;28;20485;-41
2023/06/17 08:58:49;;;;;;;4.00;2.65;;;20.70;95.10;;;;;;5030719;28;20029;-35
2023/06/17 09:01:17;;;;;;;3.70;3.13;;;20.70;95.10;;;;;;5031023;28;20054;-38
2023/06/17 09:03:43;;;;;;;3.47;3.00;;;20.70;95.10;;;;;;5031416;28;20107;-36
2023/06/17 09:06:28;;;;;;;2.83;2.60;;;20.70;95.10;;;;;;5034940;28;20033;-40
2023/06/17 09:08:55;;;;;;;4.88;3.03;;;20.70;95.00;;;;;;5034704;28;20026;-35
2023/06/17 09:11:25;;;;;;;3.15;2.85;;;20.70;95.00;;;;;;5034286;28;20029;-33
2023/06/17 09:13:52;;;;;;;3.92;2.78;;;20.70;95.10;;;;;;5034394;28;20032;-35
2023/06/17 09:16:25;;;;;;;3.33;2.78;;;20.70;95.00;;;;;;5034363;28;20029;-35
2023/06/17 09:18:55;;;;;;;4.22;3.05;;;20.70;95.10;;;;;;5034097;28;20021;-38
2023/06/17 09:21:20;;;;;;;3.33;2.80;;;20.70;95.00;;;;;;5034787;28;20030;-35
2023/06/17 09:24:00;;;;;;;3.47;2.75;;;20.70;95.10;;;;;;5034779;28;20026;-37
2023/06/17 09:26:33;;;;;;;3.83;3.00;;;20.80;95.00;;;;;;5034118;28;20450;-36
2023/06/17 09:29:04;;;;;;;3.97;2.90;;;20.80;95.00;;;;;;5034276;28;20033;-39
2023/06/17 09:31:33;;;;;;;4.45;3.17;;;20.80;95.00;;;;;;5033838;28;20032;-36
2023/06/17 09:34:03;;;;;;;3.60;2.80;;;20.80;95.00;;;;;;5034065;28;20045;-36
2023/06/17 09:36:29;;;;;;;3.35;2.85;;;20.80;95.00;;;;;;5034483;28;20396;-36
2023/06/17 09:38:55;;;;;;;3.22;2.67;;;20.80;94.90;;;;;;5035056;28;20121;-35
2023/06/17 09:41:23;;;;;;;3.20;2.90;;;20.80;94.90;;;;;;5035274;28;20065;-36
2023/06/17 09:43:52;;;;;;;3.40;2.70;;;20.80;94.90;;;;;;5035595;28;20032;-36
2023/06/17 09:46:29;;;;;;;3.00;2.70;;;20.80;94.90;;;;;;5034621;28;20465;-36
2023/06/17 09:48:57;;;;;;;3.92;2.90;;;20.90;94.90;;;;;;5034142;28;20496;-36
2023/06/17 09:51:23;;;;;;;3.72;2.90;;;20.90;94.90;;;;;;5033574;28;20022;-38
2023/06/17 09:53:54;;;;;;;3.08;2.70;;;20.80;94.80;;;;;;5033648;28;20101;-35
2023/06/17 09:56:20;;;;;;;4.22;3.10;;;20.90;94.90;;;;;;5034408;28;20053;-36
2023/06/17 09:58:47;;;;;;;3.10;2.80;;;20.90;94.90;;;;;;5034315;28;20029;-38
2023/06/17 10:01:13;;;;;;;5.10;2.78;;;20.80;94.90;;;;;;5033499;28;20030;-35
2023/06/17 10:03:39;;;;;;;4.05;2.78;;;20.80;94.80;;;;;;5034104;28;20362;-40
2023/06/17 10:06:13;;;;;;;3.13;2.70;;;20.90;94.90;;;;;;5033353;28;20025;-33
2023/06/17 10:08:43;;;;;;;5.57;2.60;;;20.90;94.90;;;;;;5033744;28;20115;-38
2023/06/17 10:11:12;;;;;;;3.55;2.90;;;20.80;94.90;;;;;;5033255;28;20380;-39
2023/06/17 10:13:39;;;;;;;2.70;2.28;;;20.90;94.90;;;;;;5033327;28;20493;-40
2023/06/17 10:16:12;;;;;;;2.95;2.45;;;20.90;94.90;;;;;;5014573;28;20021;-41
2023/06/17 10:18:40;;;;;;;3.55;2.80;;;20.80;94.90;;;;;;5033156;28;20045;-41
2023/06/17 10:21:09;;;;;;;3.30;2.55;;;20.90;94.90;;;;;;5032833;28;20441;-36
2023/06/17 10:23:37;;;;;;;3.92;3.08;;;20.90;94.90;;;;;;5033044;28;20390;-34
2023/06/17 10:26:06;;;;;;;2.67;2.35;;;20.90;94.80;;;;;;5033196;28;20075;-35
2023/06/17 10:28:51;;;;;;;3.55;2.72;;;20.90;94.80;;;;;;5033436;28;20492;-37
2023/06/17 10:31:26;;;;;;;3.20;2.65;;;20.90;94.80;;;;;;5033816;28;20029;-35
2023/06/17 10:33:53;;;;;;;2.97;2.67;;;20.90;94.80;;;;;;5033503;28;20031;-36
2023/06/17 10:36:23;;;;;;;3.10;2.78;;;20.90;94.80;;;;;;5032734;28;20025;-36
2023/06/17 10:38:58;;;;;;;2.92;2.60;;;21.00;94.80;;;;;;5032823;28;20495;-37
2023/06/17 10:41:48;;;;;;;2.92;2.50;;;20.90;94.70;;;;;;5033219;28;20025;-36
2023/06/17 10:44:20;;;;;;;3.10;2.80;;;21.00;94.70;;;;;;5032692;28;20033;-37
2023/06/17 10:46:52;;;;;;;3.55;2.60;;;21.00;94.70;;;;;;5032533;28;20036;-34
2023/06/17 10:49:18;;;;;;;2.75;2.22;;;21.00;94.70;;;;;;5032950;28;20028;-36
2023/06/17 10:51:54;;;;;;;2.45;2.20;;;21.00;94.70;;;;;;5033698;28;20033;-36
2023/06/17 10:54:31;;;;;;;2.83;2.50;;;21.00;94.70;;;;;;5032494;28;20552;-34
2023/06/17 10:56:57;;;;;;;2.80;2.50;;;21.00;94.70;;;;;;5032128;28;20384;-36
2023/06/17 10:59:32;;;;;;;2.85;2.47;;;21.00;94.70;;;;;;5032368;28;20029;-39
2023/06/17 11:02:06;;;;;;;3.00;2.50;;;21.10;95.00;;;;;;5032294;28;20073;-36
2023/06/17 11:04:36;;;;;;;4.00;2.90;;;21.00;94.60;;;;;;5032238;28;20033;-36
2023/06/17 11:07:04;;;;;;;3.38;2.38;;;21.00;94.60;;;;;;5032718;28;20037;-35
2023/06/17 11:09:31;;;;;;;3.00;2.70;;;21.00;94.60;;;;;;5032448;28;20040;-35
2023/06/17 11:11:59;;;;;;;4.43;2.60;;;21.10;94.60;;;;;;5032014;28;20048;-40
2023/06/17 11:14:30;;;;;;;3.25;2.70;;;21.10;94.60;;;;;;5032596;28;20060;-35
2023/06/17 11:16:56;;;;;;;3.90;3.10;;;21.10;95.00;;;;;;5032265;28;20025;-33
2023/06/17 11:19:22;;;;;;;3.15;2.67;;;21.10;94.60;;;;;;5031971;28;20489;-38
2023/06/17 11:22:01;;;;;;;3.00;2.50;;;21.00;94.60;;;;;;5032181;28;20021;-40
2023/06/17 11:24:27;;;;;;;3.78;2.63;;;21.10;94.70;;;;;;5032181;28;20052;-40
2023/06/17 11:26:54;;;;;;;3.15;2.60;;;21.10;94.70;;;;;;5031405;28;20021;-35
2023/06/17 11:29:20;;;;;;;4.80;2.60;;;21.10;94.70;;;;;;5031783;28;20057;-41
2023/06/17 11:31:46;;;;;;;3.15;2.80;;;21.10;94.70;;;;;;5031542;28;20032;-36
2023/06/17 11:34:12;;;;;;;2.40;2.20;;;21.10;94.70;;;;;;5031994;28;20026;-38
2023/06/17 11:36:38;;;;;;;3.05;2.60;;;21.10;94.60;;;;;;5031492;28;20033;-35
2023/06/17 11:39:04;;;;;;;3.20;2.90;;;21.10;94.60;;;;;;5031634;28;20072;-35
2023/06/17 11:41:31;;;;;;;2.75;2.30;;;21.10;94.60;;;;;;5031684;28;20049;-37
2023/06/17 11:43:57;;;;;;;3.03;2.25;;;21.10;94.60;;;;;;5031560;28;20052;-35
2023/06/17 11:46:24;;;;;;;5.10;2.55;;;21.10;94.60;;;;;;5032479;28;20425;-36
2023/06/17 11:48:50;;;;;;;3.75;2.53;;;21.10;94.60;;;;;;5031370;28;20013;-36
2023/06/17 11:51:19;;;;;;;3.08;2.58;;;21.00;94.60;;;;;;5031296;28;20028;-37
2023/06/17 11:53:47;;;;;;;4.40;2.70;;;21.10;94.60;;;;;;5031437;28;20013;-36
2023/06/17 11:56:15;;;;;;;2.85;2.50;;;21.00;94.60;;;;;;5031392;28;20029;-39
2023/06/17 11:58:43;;;;;;;2.92;2.50;;;21.10;94.60;;;;;;5031381;28;20021;-36
2023/06/17 12:01:09;;;;;;;2.67;2.40;;;21.10;94.60;;;;;;5031386;28;20618;-36
2023/06/17 12:03:36;;;;;;;4.47;2.50;;;21.10;94.50;;;;;;5031829;28;20037;-35
2023/06/17 12:06:03;;;;;;;4.00;2.53;;;21.10;94.50;;;;;;5031307;28;20145;-36
2023/06/17 12:08:32;;;;;;;3.17;2.40;;;21.10;94.60;;;;;;5031193;28;20643;-39
2023/06/17 12:10:58;;;;;;;2.50;1.92;;;21.10;94.50;;;;;;5031098;28;20018;-36
2023/06/17 12:13:23;;;;;;;3.28;2.42;;;21.20;94.60;;;;;;5032048;28;20033;-36
2023/06/17 12:15:49;;;;;;;3.55;2.47;;;21.10;94.50;;;;;;5031247;28;20164;-34
2023/06/17 12:18:15;;;;;;;5.03;2.55;;;21.20;94.60;;;;;;5031837;28;20030;-37
2023/06/17 12:20:50;;;;;;;3.42;2.33;;;21.20;94.50;;;;;;5030958;28;20071;-35
2023/06/17 12:23:15;;;;;;;4.13;2.42;;;21.20;94.50;;;;;;5031501;28;20021;-36
2023/06/17 12:25:41;;;;;;;3.38;2.63;;;21.20;94.50;;;;;;5031410;28;20032;-35
2023/06/17 12:28:07;;;;;;;3.30;2.38;;;21.20;94.50;;;;;;5032170;28;20492;-34
2023/06/17 12:30:33;;;;;;;4.13;2.50;;;21.20;94.50;;;;;;5031147;28;20072;-35
2023/06/17 12:32:59;;;;;;;3.70;2.30;;;21.20;94.50;;;;;;5031400;28;20022;-35
2023/06/17 12:35:25;;;;;;;3.33;2.40;;;21.20;94.50;;;;;;5031367;28;20488;-35
2023/06/17 12:37:53;;;;;;;3.13;2.53;;;21.20;94.50;;;;;;5031010;28;20040;-38
2023/06/17 12:40:18;;;;;;;4.78;2.70;;;21.20;94.50;;;;;;5034107;28;20025;-39
2023/06/17 12:42:44;;;;;;;3.05;2.72;;;21.20;94.50;;;;;;5034952;28;20022;-36
2023/06/17 12:45:10;;;;;;;2.45;2.25;;;21.20;94.50;;;;;;5035379;28;20025;-36